createdAt,value
2023-03-06T06:10:20.802Z,100722.97
2023-03-06T06:12:49.968Z,100730.38
2023-03-06T06:15:37.725Z,100724.66
2023-03-06T06:18:05.170Z,100723.25
2023-03-06T06:20:32.434Z,100743.16
2023-03-06T06:22:59.643Z,100733.38
2023-03-06T06:25:27.065Z,100733.88
2023-03-06T06:27:56.771Z,100741.72
2023-03-06T06:30:25.065Z,100734.13
2023-03-06T06:32:52.233Z,100739.94
2023-03-06T06:35:19.497Z,100736.97
2023-03-06T06:37:46.952Z,100730.41
2023-03-06T06:40:14.655Z,100754.03
2023-03-06T06:42:42.184Z,100735.13
2023-03-06T06:45:11.117Z,100733.53
2023-03-06T06:47:42.194Z,100754.06
2023-03-06T06:50:13.936Z,100745.88
2023-03-06T06:52:41.082Z,100748.06
2023-03-06T06:55:08.918Z,100753.81
2023-03-06T06:57:36.015Z,100742.03
2023-03-06T07:00:04.372Z,100755.72
2023-03-06T07:02:32.616Z,100738.47
2023-03-06T07:05:04.525Z,100737.66
2023-03-06T07:07:35.638Z,100755.72
2023-03-06T07:10:05.802Z,100763.94
2023-03-06T07:12:33.133Z,100761.75
2023-03-06T07:15:00.154Z,100754.91
2023-03-06T07:17:27.243Z,100758.19
2023-03-06T07:19:54.538Z,100758.47
2023-03-06T07:22:21.572Z,100777.63
2023-03-06T07:24:48.783Z,100770.22
2023-03-06T07:27:15.872Z,100765.84
2023-03-06T07:29:44.252Z,100773.47
2023-03-06T07:32:11.869Z,100763.06
2023-03-06T07:34:41.563Z,100763.88
2023-03-06T07:37:08.556Z,100774.47
2023-03-06T07:39:35.665Z,100775.81
2023-03-06T07:42:02.900Z,100780.72
2023-03-06T07:45:07.091Z,100786.44
2023-03-06T07:50:35.386Z,100772.66
2023-03-06T07:53:02.649Z,100795.88
2023-03-06T07:55:29.792Z,100784.91
2023-03-06T07:58:00.162Z,100780.47
2023-03-06T08:00:27.634Z,100786.38
2023-03-06T08:02:54.882Z,100787.94
2023-03-06T08:05:22.186Z,100794.75
2023-03-06T08:07:49.204Z,100786.22
2023-03-06T08:10:19.441Z,100771.59
2023-03-06T08:12:46.668Z,100786.03
2023-03-06T08:15:14.595Z,100804.59
2023-03-06T08:17:41.817Z,100796.78
2023-03-06T08:20:10.764Z,100807.66
2023-03-06T08:22:38.490Z,100801.00
2023-03-06T08:25:06.500Z,100797.63
2023-03-06T08:27:34.873Z,100796.69
2023-03-06T08:30:02.443Z,100801.50
2023-03-06T08:32:29.711Z,100803.53
2023-03-06T08:34:56.947Z,100805.34
2023-03-06T08:37:24.143Z,100796.25
2023-03-06T08:39:51.406Z,100786.44
2023-03-06T08:42:18.721Z,100813.66
2023-03-06T08:44:45.971Z,100805.84
2023-03-06T08:47:13.058Z,100794.22
2023-03-06T08:49:40.443Z,100791.22
2023-03-06T08:52:08.237Z,100809.66
2023-03-06T08:54:36.187Z,100795.88
2023-03-06T08:57:03.789Z,100792.97
2023-03-06T08:59:30.934Z,100808.44
2023-03-06T09:01:58.157Z,100788.75
2023-03-06T09:04:25.298Z,100808.00
2023-03-06T09:06:54.433Z,100798.69
2023-03-06T09:09:22.280Z,100818.75
2023-03-06T09:11:51.519Z,100807.91
2023-03-06T09:14:18.558Z,100801.91
2023-03-06T09:16:45.587Z,100815.06
2023-03-06T09:19:12.724Z,100813.75
2023-03-06T09:21:39.811Z,100812.06
2023-03-06T09:24:07.108Z,100819.00
2023-03-06T09:26:45.533Z,100818.38
2023-03-06T09:29:13.084Z,100826.00
2023-03-06T09:31:40.335Z,100822.38
2023-03-06T09:34:07.645Z,100828.44
2023-03-06T09:36:45.858Z,100821.03
2023-03-06T09:39:21.867Z,100819.38
2023-03-06T09:41:51.343Z,100821.56
2023-03-06T09:44:26.413Z,100823.25
2023-03-06T09:46:59.477Z,100822.34
2023-03-06T09:49:53.872Z,100815.56
2023-03-06T09:53:03.049Z,100816.44
2023-03-06T09:55:38.395Z,100817.13
2023-03-06T09:58:16.704Z,100800.84
2023-03-06T10:01:07.858Z,100806.75
2023-03-06T10:03:54.685Z,100817.38
2023-03-06T10:06:30.102Z,100814.09
2023-03-06T10:09:26.645Z,100808.00
2023-03-06T10:12:17.924Z,100811.44
2023-03-06T10:14:49.741Z,100810.03
2023-03-06T10:17:25.410Z,100807.59
2023-03-06T10:19:55.621Z,100811.72
2023-03-06T10:22:28.702Z,100809.94
2023-03-06T10:25:23.303Z,100806.47
2023-03-06T10:27:58.089Z,100805.38
2023-03-06T10:30:46.334Z,100801.00
2023-03-06T10:33:45.694Z,100806.09
2023-03-06T10:36:16.498Z,100803.03
2023-03-06T10:38:45.181Z,100792.41
2023-03-06T10:41:12.290Z,100802.03
2023-03-06T10:43:44.207Z,100784.66
2023-03-06T10:46:33.693Z,100780.28
2023-03-06T10:49:03.186Z,100782.44
2023-03-06T10:51:31.417Z,100794.84
2023-03-06T10:54:01.667Z,100803.25
2023-03-06T10:57:06.061Z,100787.72
2023-03-06T10:59:33.555Z,100772.09
2023-03-06T11:02:24.539Z,100778.53
2023-03-06T11:04:53.921Z,100769.19
2023-03-06T11:18:43.255Z,100749.22
2023-03-06T11:21:42.858Z,100766.63
2023-03-06T11:24:20.408Z,100768.19
2023-03-06T11:34:21.745Z,100753.84
2023-03-06T11:44:23.896Z,100720.69
2023-03-06T11:47:11.103Z,100750.59
2023-03-06T11:50:06.920Z,100737.75
2023-03-06T11:53:04.496Z,100718.72
2023-03-06T11:55:47.544Z,100736.41
2023-03-06T11:59:01.851Z,100694.81
2023-03-06T12:02:23.321Z,100726.28
2023-03-06T12:05:29.973Z,100716.38
2023-03-06T12:08:44.322Z,100708.66
2023-03-06T12:15:20.015Z,100682.59
2023-03-06T12:18:29.362Z,100683.16
